Time;durP1;ratioP1;P1;durP2;ratioP2;P2;SDS_P1;SDS_P2;PMS_P1;PMS_P2;Temp;Humidity;BMP_temperature;BMP_pressure;BME280_temperature;BME280_humidity;BME280_pressure;Samples;Min_cycle;Max_cycle;Signal;HPM_P1;HPM_P2
2024/03/04 00:00:40;;;;;;;;;;;5.70;99.90;;;;;;2062351;28;19921;-73
2024/03/04 00:01:40;;;;;;;;;;;5.70;99.90;;;;;;2060588;28;19909;-74
2024/03/04 00:02:41;;;;;;;;;;;5.70;99.90;;;;;;2061139;28;19909;-74
2024/03/04 00:03:41;;;;;;;;;;;5.70;99.90;;;;;;2061100;28;20083;-73
2024/03/04 00:04:42;;;;;;;;;;;5.60;99.90;;;;;;2057357;28;19918;-74
2024/03/04 00:05:42;;;;;;;;;;;5.50;99.90;;;;;;2060988;28;20515;-74
2024/03/04 00:06:43;;;;;;;;;;;5.50;99.90;;;;;;2052772;28;19933;-73
2024/03/04 00:07:43;;;;;;;;;;;5.40;99.90;;;;;;2061183;28;19913;-74
2024/03/04 00:08:44;;;;;;;;;;;5.40;99.90;;;;;;2061000;28;20403;-74
2024/03/04 00:09:44;;;;;;;;;;;5.40;99.90;;;;;;2060950;28;19922;-73
2024/03/04 00:10:45;;;;;;;;;;;5.40;99.90;;;;;;2060987;28;20292;-74
2024/03/04 00:11:45;;;;;;;;;;;5.40;99.90;;;;;;2060580;28;19948;-74
2024/03/04 00:12:46;;;;;;;;;;;5.40;99.90;;;;;;2057118;28;19972;-73
2024/03/04 00:13:47;;;;;;;;;;;5.40;99.90;;;;;;2061247;28;20210;-74
2024/03/04 00:14:49;;;;;;;;;;;5.40;99.90;;;;;;2060925;28;19910;-74
2024/03/04 00:15:49;;;;;;;;;;;5.40;99.90;;;;;;2056349;28;19914;-73
2024/03/04 00:16:50;;;;;;;;;;;5.40;99.90;;;;;;2052535;28;19910;-73
2024/03/04 00:17:51;;;;;;;;;;;5.40;99.90;;;;;;2056237;28;19969;-73
2024/03/04 00:18:52;;;;;;;;;;;5.50;99.90;;;;;;2060034;28;19920;-73
2024/03/04 00:19:52;;;;;;;;;;;5.50;99.90;;;;;;2056315;28;19957;-73
2024/03/04 00:20:53;;;;;;;;;;;5.50;99.90;;;;;;2061240;28;19917;-73
2024/03/04 00:21:56;;;;;;;;;;;5.50;99.90;;;;;;2061389;28;20295;-73
2024/03/04 00:22:56;;;;;;;;;;;5.50;99.90;;;;;;2060574;28;20434;-74
2024/03/04 00:23:57;;;;;;;;;;;5.50;99.90;;;;;;2060544;28;19984;-73
2024/03/04 00:24:57;;;;;;;;;;;5.40;99.90;;;;;;2048059;28;20345;-74
2024/03/04 00:25:58;;;;;;;;;;;5.30;99.90;;;;;;2053503;28;19949;-74
2024/03/04 00:26:58;;;;;;;;;;;5.30;99.90;;;;;;2054599;28;19943;-74
2024/03/04 00:27:59;;;;;;;;;;;5.20;99.90;;;;;;2050732;28;19917;-74
2024/03/04 00:28:59;;;;;;;;;;;5.20;99.90;;;;;;2045882;28;19981;-73
2024/03/04 00:30:00;;;;;;;;;;;5.30;99.90;;;;;;2054653;28;19920;-71
2024/03/04 00:31:00;;;;;;;;;;;5.30;99.90;;;;;;2055027;28;19910;-71
2024/03/04 00:32:01;;;;;;;;;;;5.30;99.90;;;;;;2061363;28;20339;-71
2024/03/04 00:33:02;;;;;;;;;;;5.20;99.90;;;;;;2058845;28;19917;-71
2024/03/04 00:34:04;;;;;;;;;;;5.20;99.90;;;;;;2058323;28;20132;-70
2024/03/04 00:35:05;;;;;;;;;;;5.20;99.90;;;;;;2060150;28;20459;-70
2024/03/04 00:36:06;;;;;;;;;;;5.20;99.90;;;;;;2060619;28;20025;-71
2024/03/04 00:37:07;;;;;;;;;;;5.20;99.90;;;;;;2061413;28;20041;-70
2024/03/04 00:38:07;;;;;;;;;;;5.20;99.90;;;;;;2060801;28;19910;-70
2024/03/04 00:39:09;;;;;;;;;;;5.20;99.90;;;;;;2060741;28;19937;-70
2024/03/04 00:40:10;;;;;;;;;;;5.20;99.90;;;;;;2054575;28;19921;-76
2024/03/04 00:41:10;;;;;;;;;;;5.20;99.90;;;;;;2058735;28;20197;-76
2024/03/04 00:42:11;;;;;;;;;;;5.10;99.90;;;;;;2060585;28;19909;-76
2024/03/04 00:43:12;;;;;;;;;;;5.10;99.90;;;;;;2060672;28;20012;-76
2024/03/04 00:44:12;;;;;;;;;;;5.10;99.90;;;;;;2061055;28;20318;-76
2024/03/04 00:45:13;;;;;;;;;;;5.10;99.90;;;;;;2060851;28;19918;-76
2024/03/04 00:46:13;;;;;;;;;;;5.10;99.90;;;;;;2050524;28;20336;-76
2024/03/04 00:47:14;;;;;;;;;;;5.00;99.90;;;;;;2049669;28;19927;-76
2024/03/04 00:48:14;;;;;;;;;;;5.00;99.90;;;;;;2056678;28;20340;-76
2024/03/04 00:49:15;;;;;;;;;;;5.00;99.90;;;;;;2056346;28;19920;-76
2024/03/04 00:50:16;;;;;;;;;;;5.00;99.90;;;;;;2054292;28;19913;-76
2024/03/04 00:51:17;;;;;;;;;;;5.10;99.90;;;;;;2060405;28;19913;-76
2024/03/04 00:52:18;;;;;;;;;;;5.10;99.90;;;;;;2059574;28;19961;-76
2024/03/04 00:53:18;;;;;;;;;;;5.10;99.90;;;;;;2060536;28;19905;-76
2024/03/04 00:54:19;;;;;;;;;;;5.20;99.90;;;;;;2059796;28;20376;-76
2024/03/04 00:55:19;;;;;;;;;;;5.20;99.90;;;;;;2060273;28;19913;-76
2024/03/04 00:56:21;;;;;;;;;;;5.30;99.90;;;;;;2059216;28;19924;-76
2024/03/04 00:57:21;;;;;;;;;;;5.20;99.90;;;;;;2060513;28;19916;-76
2024/03/04 00:58:23;;;;;;;;;;;5.10;99.90;;;;;;2059451;28;19932;-76
2024/03/04 00:59:23;;;;;;;;;;;5.10;99.90;;;;;;2060359;28;19916;-76
2024/03/04 01:00:24;;;;;;;;;;;5.10;99.90;;;;;;2059754;28;20240;-76
2024/03/04 01:01:24;;;;;;;;;;;5.10;99.90;;;;;;2056442;28;19937;-76
2024/03/04 01:02:25;;;;;;;;;;;5.10;99.90;;;;;;2055730;28;19914;-76
2024/03/04 01:03:26;;;;;;;;;;;5.10;99.90;;;;;;2059593;28;19952;-76
2024/03/04 01:04:26;;;;;;;;;;;5.10;99.90;;;;;;2056801;28;20368;-76
2024/03/04 01:05:27;;;;;;;;;;;5.20;99.90;;;;;;2060427;28;19914;-76
2024/03/04 01:06:27;;;;;;;;;;;5.20;99.90;;;;;;2056550;28;20462;-76
2024/03/04 01:07:28;;;;;;;;;;;5.20;99.90;;;;;;2056757;28;19910;-82
2024/03/04 01:08:31;;;;;;;;;;;5.10;99.90;;;;;;2056329;28;19914;-76
2024/03/04 01:09:31;;;;;;;;;;;5.10;99.90;;;;;;2057051;28;19909;-77
2024/03/04 01:10:32;;;;;;;;;;;5.00;99.90;;;;;;2060551;28;19910;-76
2024/03/04 01:11:33;;;;;;;;;;;5.00;99.90;;;;;;2056325;28;19952;-77
2024/03/04 01:12:33;;;;;;;;;;;5.00;99.90;;;;;;2059519;28;19916;-77
2024/03/04 01:13:34;;;;;;;;;;;5.00;99.90;;;;;;2057449;28;19925;-77
2024/03/04 01:14:36;;;;;;;;;;;5.00;99.90;;;;;;2060823;28;20000;-75
2024/03/04 01:15:37;;;;;;;;;;;5.00;99.90;;;;;;2056363;28;19980;-76
2024/03/04 01:16:41;;;;;;;;;;;5.00;99.90;;;;;;2059684;28;20372;-77
2024/03/04 01:17:41;;;;;;;;;;;5.00;99.90;;;;;;2057507;28;19909;-77
2024/03/04 01:18:42;;;;;;;;;;;4.90;99.90;;;;;;2059256;28;19910;-77
2024/03/04 01:19:45;;;;;;;;;;;4.90;99.90;;;;;;2057598;28;19922;-77
2024/03/04 01:20:46;;;;;;;;;;;4.90;99.90;;;;;;2056375;28;20134;-77
2024/03/04 01:21:49;;;;;;;;;;;4.90;99.90;;;;;;2056589;28;20361;-77
2024/03/04 01:22:50;;;;;;;;;;;4.90;99.90;;;;;;2060741;28;19913;-76
2024/03/04 01:23:52;;;;;;;;;;;5.00;99.90;;;;;;2059413;28;19914;-76
2024/03/04 01:24:53;;;;;;;;;;;5.00;99.90;;;;;;2060019;28;20339;-77
2024/03/04 01:25:54;;;;;;;;;;;5.00;99.90;;;;;;2060000;28;19913;-77
2024/03/04 01:26:56;;;;;;;;;;;5.10;99.90;;;;;;2055964;28;19914;-77
2024/03/04 01:27:57;;;;;;;;;;;5.10;99.90;;;;;;2056539;28;20340;-77
2024/03/04 01:28:57;;;;;;;;;;;5.10;99.90;;;;;;2057109;28;19925;-77
2024/03/04 01:29:58;;;;;;;;;;;5.00;99.90;;;;;;2059813;28;19910;-78
2024/03/04 01:30:58;;;;;;;;;;;5.00;99.90;;;;;;2055895;28;19916;-77
2024/03/04 01:31:59;;;;;;;;;;;4.90;99.90;;;;;;2056301;28;20343;-77
2024/03/04 01:32:59;;;;;;;;;;;4.80;99.90;;;;;;2059893;28;19914;-77
2024/03/04 01:34:00;;;;;;;;;;;4.80;99.90;;;;;;2060353;28;20100;-77
2024/03/04 01:35:02;;;;;;;;;;;4.80;99.90;;;;;;2060364;28;20392;-76
2024/03/04 01:36:03;;;;;;;;;;;4.80;99.90;;;;;;2056618;28;20457;-76
2024/03/04 01:37:03;;;;;;;;;;;4.80;99.90;;;;;;2060192;28;19913;-76
2024/03/04 01:38:04;;;;;;;;;;;4.80;99.90;;;;;;2058163;28;20326;-76
2024/03/04 01:39:04;;;;;;;;;;;4.80;99.90;;;;;;2051744;28;19918;-76
2024/03/04 01:40:06;;;;;;;;;;;4.80;99.90;;;;;;2059939;28;20431;-76
2024/03/04 01:41:06;;;;;;;;;;;4.70;99.90;;;;;;2060137;28;20024;-77
2024/03/04 01:42:07;;;;;;;;;;;4.60;99.90;;;;;;2059220;28;20111;-75
2024/03/04 01:43:08;;;;;;;;;;;4.60;99.90;;;;;;2051836;28;19914;-76
2024/03/04 01:44:11;;;;;;;;;;;4.70;99.90;;;;;;2056441;28;19920;-76
2024/03/04 01:45:17;;;;;;;;;;;4.70;99.90;;;;;;2060391;28;19910;-77
2024/03/04 01:46:18;;;;;;;;;;;4.70;99.90;;;;;;2060264;28;19913;-76
2024/03/04 01:47:20;;;;;;;;;;;4.70;99.90;;;;;;2060319;28;20020;-77
2024/03/04 01:48:21;;;;;;;;;;;4.70;99.90;;;;;;2060209;28;19929;-77
2024/03/04 01:49:22;;;;;;;;;;;4.60;99.90;;;;;;2060191;28;20004;-76
2024/03/04 01:50:24;;;;;;;;;;;4.60;99.90;;;;;;2060422;28;20353;-76
2024/03/04 01:51:25;;;;;;;;;;;4.60;99.90;;;;;;2060236;28;19949;-76
2024/03/04 01:52:26;;;;;;;;;;;4.60;99.90;;;;;;2059330;28;20265;-76
2024/03/04 01:53:27;;;;;;;;;;;4.60;99.90;;;;;;2055277;28;19956;-76
2024/03/04 01:54:29;;;;;;;;;;;4.50;99.90;;;;;;2060368;28;19914;-77
2024/03/04 01:55:35;;;;;;;;;;;4.50;99.90;;;;;;2059489;28;20380;-77
2024/03/04 01:56:35;;;;;;;;;;;4.50;99.90;;;;;;2047760;28;20376;-77
2024/03/04 01:57:36;;;;;;;;;;;4.50;99.90;;;;;;2051476;28;20012;-77
2024/03/04 01:58:40;;;;;;;;;;;4.40;99.90;;;;;;2059524;28;19910;-77
2024/03/04 01:59:41;;;;;;;;;;;4.50;99.90;;;;;;2060108;28;20367;-76
2024/03/04 02:00:44;;;;;;;;;;;4.50;99.90;;;;;;2056370;28;19910;-76
2024/03/04 02:01:45;;;;;;;;;;;4.40;99.90;;;;;;2060130;28;19914;-77
2024/03/04 02:02:45;;;;;;;;;;;4.50;99.90;;;;;;2060226;28;19913;-77
2024/03/04 02:03:46;;;;;;;;;;;4.40;99.90;;;;;;2060066;28;19910;-77
2024/03/04 02:04:47;;;;;;;;;;;4.40;99.90;;;;;;2060149;28;19913;-77
2024/03/04 02:05:47;;;;;;;;;;;4.40;99.90;;;;;;2055691;28;19910;-77
2024/03/04 02:06:49;;;;;;;;;;;4.40;99.90;;;;;;2059432;28;19993;-77
2024/03/04 02:07:50;;;;;;;;;;;4.40;99.90;;;;;;2059314;28;19987;-77
2024/03/04 02:08:50;;;;;;;;;;;4.40;99.90;;;;;;2060454;28;20450;-76
2024/03/04 02:09:51;;;;;;;;;;;4.40;99.90;;;;;;2059700;28;19922;-77
2024/03/04 02:10:54;;;;;;;;;;;4.40;99.90;;;;;;2060056;28;19905;-77
2024/03/04 02:11:54;;;;;;;;;;;4.40;99.90;;;;;;2060791;28;19913;-76
2024/03/04 02:12:56;;;;;;;;;;;4.40;99.90;;;;;;2060197;28;20440;-76
2024/03/04 02:13:57;;;;;;;;;;;4.40;99.90;;;;;;2060250;28;20412;-76
2024/03/04 02:14:59;;;;;;;;;;;4.40;99.90;;;;;;2059945;28;19968;-76
2024/03/04 02:16:00;;;;;;;;;;;4.40;99.90;;;;;;2055202;28;20544;-77
2024/03/04 02:17:00;;;;;;;;;;;4.40;99.90;;;;;;2060378;28;19924;-77
2024/03/04 02:18:01;;;;;;;;;;;4.40;99.90;;;;;;2057906;28;19917;-77
2024/03/04 02:19:02;;;;;;;;;;;4.30;99.90;;;;;;2057933;28;19917;-77
2024/03/04 02:20:04;;;;;;;;;;;4.30;99.90;;;;;;2060093;28;19921;-77
2024/03/04 02:21:06;;;;;;;;;;;4.30;99.90;;;;;;2059944;28;19913;-78
2024/03/04 02:22:09;;;;;;;;;;;4.30;99.90;;;;;;2060366;28;21088;-77
2024/03/04 02:23:11;;;;;;;;;;;4.30;99.90;;;;;;2060065;28;19924;-76
2024/03/04 02:24:12;;;;;;;;;;;4.30;99.90;;;;;;2060053;28;20273;-77
2024/03/04 02:25:12;;;;;;;;;;;4.30;99.90;;;;;;2059168;28;20020;-76
2024/03/04 02:26:13;;;;;;;;;;;4.40;99.90;;;;;;2059170;28;19913;-76
2024/03/04 02:27:13;;;;;;;;;;;4.50;99.90;;;;;;2059422;28;20315;-76
2024/03/04 02:28:14;;;;;;;;;;;4.50;99.90;;;;;;2051197;28;19914;-76
2024/03/04 02:29:14;;;;;;;;;;;4.50;99.90;;;;;;2055136;28;20451;-76
2024/03/04 02:30:15;;;;;;;;;;;4.50;99.90;;;;;;2055905;28;19960;-77
2024/03/04 02:31:16;;;;;;;;;;;4.50;99.90;;;;;;2055381;28;19968;-78
2024/03/04 02:32:16;;;;;;;;;;;4.50;99.90;;;;;;2059239;28;19913;-77
2024/03/04 02:33:21;;;;;;;;;;;4.50;99.90;;;;;;2059920;28;20475;-76
2024/03/04 02:34:22;;;;;;;;;;;4.60;99.90;;;;;;2060068;28;20004;-77
2024/03/04 02:35:22;;;;;;;;;;;4.60;99.90;;;;;;2054686;28;20296;-76
2024/03/04 02:36:23;;;;;;;;;;;4.60;99.90;;;;;;2055092;28;20319;-77
2024/03/04 02:37:24;;;;;;;;;;;4.50;99.90;;;;;;2059295;28;20380;-78
2024/03/04 02:38:25;;;;;;;;;;;4.50;99.90;;;;;;2055437;28;19914;-77
2024/03/04 02:39:26;;;;;;;;;;;4.50;99.90;;;;;;2059820;28;19945;-76
2024/03/04 02:40:26;;;;;;;;;;;4.50;99.90;;;;;;2059651;28;20016;-76
2024/03/04 02:41:27;;;;;;;;;;;4.50;99.90;;;;;;2054775;28;19918;-77
2024/03/04 02:42:27;;;;;;;;;;;4.50;99.90;;;;;;2055788;28;19920;-77
2024/03/04 02:43:28;;;;;;;;;;;4.50;99.90;;;;;;2059220;28;19980;-77
2024/03/04 02:44:29;;;;;;;;;;;4.50;99.90;;;;;;2054722;28;20452;-77
2024/03/04 02:45:30;;;;;;;;;;;4.50;99.90;;;;;;2056305;28;19913;-76
2024/03/04 02:46:30;;;;;;;;;;;4.50;99.90;;;;;;2059000;28;19913;-76
2024/03/04 02:47:31;;;;;;;;;;;4.50;99.90;;;;;;2060134;28;19914;-76
2024/03/04 02:48:31;;;;;;;;;;;4.50;99.90;;;;;;2058750;28;19920;-76
2024/03/04 02:49:35;;;;;;;;;;;4.50;99.90;;;;;;2057148;28;19936;-78
2024/03/04 02:50:38;;;;;;;;;;;4.40;99.90;;;;;;2060155;28;19967;-78
2024/03/04 02:51:38;;;;;;;;;;;4.40;99.90;;;;;;2057871;28;19937;-78
2024/03/04 02:52:39;;;;;;;;;;;4.30;99.90;;;;;;2059776;28;19909;-77
2024/03/04 02:53:39;;;;;;;;;;;4.30;99.90;;;;;;2059913;28;20446;-78
2024/03/04 02:54:39;;;;;;;;;;;4.20;99.90;;;;;;2060145;28;20260;-77
2024/03/04 02:55:42;;;;;;;;;;;4.10;99.90;;;;;;2059932;28;20379;-78
2024/03/04 02:56:42;;;;;;;;;;;4.10;99.90;;;;;;2059870;28;19949;-77
2024/03/04 02:57:43;;;;;;;;;;;4.10;99.90;;;;;;2059615;28;19914;-78
2024/03/04 02:58:43;;;;;;;;;;;4.10;99.90;;;;;;2055753;28;20416;-77
2024/03/04 02:59:44;;;;;;;;;;;4.10;99.90;;;;;;2054927;28;20035;-78
2024/03/04 03:00:44;;;;;;;;;;;4.10;99.90;;;;;;2059195;28;19913;-78
2024/03/04 03:01:47;;;;;;;;;;;4.20;99.90;;;;;;2059215;28;19951;-78
2024/03/04 03:02:49;;;;;;;;;;;4.10;99.90;;;;;;2055219;28;19953;-78
2024/03/04 03:03:49;;;;;;;;;;;4.00;99.90;;;;;;2055788;28;19961;-78
2024/03/04 03:04:50;;;;;;;;;;;4.00;99.90;;;;;;2056124;28;19968;-77
2024/03/04 03:05:50;;;;;;;;;;;4.00;99.90;;;;;;2059733;28;19921;-77
2024/03/04 03:06:51;;;;;;;;;;;4.00;99.90;;;;;;2052652;28;20252;-77
2024/03/04 03:07:51;;;;;;;;;;;4.00;99.90;;;;;;2058332;28;19985;-78
2024/03/04 03:08:52;;;;;;;;;;;4.00;99.90;;;;;;2059149;28;19917;-78
2024/03/04 03:09:54;;;;;;;;;;;4.00;99.90;;;;;;2059902;28;20423;-77
2024/03/04 03:10:54;;;;;;;;;;;4.00;99.90;;;;;;2057509;28;19910;-77
2024/03/04 03:11:55;;;;;;;;;;;4.00;99.90;;;;;;2057028;28;20012;-76
2024/03/04 03:12:55;;;;;;;;;;;4.00;99.90;;;;;;2061633;28;20007;-77
2024/03/04 03:13:57;;;;;;;;;;;4.00;99.90;;;;;;2061522;28;19960;-77
2024/03/04 03:14:57;;;;;;;;;;;4.00;99.90;;;;;;2061507;28;19913;-76
2024/03/04 03:15:58;;;;;;;;;;;3.90;99.90;;;;;;2061229;28;20343;-76
2024/03/04 03:16:58;;;;;;;;;;;4.00;99.90;;;;;;2057660;28;19992;-76
2024/03/04 03:18:02;;;;;;;;;;;3.90;99.90;;;;;;2061196;28;20403;-77
2024/03/04 03:19:02;;;;;;;;;;;3.90;99.90;;;;;;2060827;28;19914;-77
2024/03/04 03:20:16;;;;;;;;;;;3.90;99.90;;;;;;2061417;28;20008;-78
2024/03/04 03:21:17;;;;;;;;;;;3.80;99.90;;;;;;2061508;28;20500;-78
2024/03/04 03:22:17;;;;;;;;;;;3.90;99.90;;;;;;2061586;28;20465;-77
2024/03/04 03:23:18;;;;;;;;;;;3.90;99.90;;;;;;2061627;28;19913;-77
2024/03/04 03:24:22;;;;;;;;;;;3.80;99.90;;;;;;2061197;28;20399;-78
2024/03/04 03:25:23;;;;;;;;;;;3.80;99.90;;;;;;2058722;28;20009;-78
2024/03/04 03:26:25;;;;;;;;;;;3.80;99.90;;;;;;2060793;28;19914;-77
2024/03/04 03:27:28;;;;;;;;;;;3.70;99.90;;;;;;2058319;28;19913;-77
2024/03/04 03:28:29;;;;;;;;;;;3.70;99.90;;;;;;2060890;28;19960;-77
2024/03/04 03:29:29;;;;;;;;;;;3.70;99.90;;;;;;2061223;28;19968;-77
2024/03/04 03:30:30;;;;;;;;;;;3.70;99.90;;;;;;2062110;28;19914;-77
2024/03/04 03:31:30;;;;;;;;;;;3.70;99.90;;;;;;2057309;28;20000;-77
2024/03/04 03:32:31;;;;;;;;;;;3.70;99.90;;;;;;2061340;28;19960;-77
2024/03/04 03:33:31;;;;;;;;;;;3.70;99.90;;;;;;2061412;28;20008;-78
2024/03/04 03:34:32;;;;;;;;;;;3.70;99.90;;;;;;2061025;28;19922;-77
2024/03/04 03:35:33;;;;;;;;;;;3.70;99.90;;;;;;2060889;28;20012;-77
2024/03/04 03:36:35;;;;;;;;;;;3.60;99.90;;;;;;2060777;28;19949;-78
2024/03/04 03:37:36;;;;;;;;;;;3.60;99.90;;;;;;2057417;28;19931;-77
2024/03/04 03:38:36;;;;;;;;;;;3.60;99.90;;;;;;2061289;28;20024;-78
2024/03/04 03:39:37;;;;;;;;;;;3.60;99.90;;;;;;2057319;28;20394;-77
2024/03/04 03:40:37;;;;;;;;;;;3.60;99.90;;;;;;2060564;28;19909;-77
2024/03/04 03:41:38;;;;;;;;;;;3.60;99.90;;;;;;2056627;28;20351;-77
2024/03/04 03:42:39;;;;;;;;;;;3.60;99.90;;;;;;2061468;28;19916;-76
2024/03/04 03:43:40;;;;;;;;;;;3.60;99.90;;;;;;2061334;28;19956;-77
2024/03/04 03:44:40;;;;;;;;;;;3.60;99.90;;;;;;2056741;28;20024;-78
2024/03/04 03:45:42;;;;;;;;;;;3.70;99.90;;;;;;2060782;28;20063;-77
2024/03/04 03:46:42;;;;;;;;;;;3.70;99.90;;;;;;2057518;28;19917;-77
2024/03/04 03:47:43;;;;;;;;;;;3.70;99.90;;;;;;2061065;28;19921;-77
2024/03/04 03:48:44;;;;;;;;;;;3.70;99.90;;;;;;2057427;28;19917;-76
2024/03/04 03:49:44;;;;;;;;;;;3.70;99.90;;;;;;2057379;28;19910;-76
2024/03/04 03:50:45;;;;;;;;;;;3.60;99.90;;;;;;2061174;28;19914;-77
2024/03/04 03:51:45;;;;;;;;;;;3.70;99.90;;;;;;2061243;28;19910;-78
2024/03/04 03:52:46;;;;;;;;;;;3.60;99.90;;;;;;2061052;28;19914;-77
2024/03/04 03:53:46;;;;;;;;;;;3.70;99.90;;;;;;2059754;28;19920;-78
2024/03/04 03:54:46;;;;;;;;;;;3.70;99.90;;;;;;2058461;28;19914;-76
2024/03/04 03:55:47;;;;;;;;;;;3.70;99.90;;;;;;2061350;28;19984;-77
2024/03/04 03:56:48;;;;;;;;;;;3.80;99.90;;;;;;2060983;28;20368;-77
2024/03/04 03:57:48;;;;;;;;;;;3.80;99.90;;;;;;2057185;28;19946;-77
2024/03/04 03:58:49;;;;;;;;;;;3.90;99.90;;;;;;2059654;28;20007;-77
2024/03/04 03:59:50;;;;;;;;;;;3.80;99.90;;;;;;2058683;28;19972;-77
2024/03/04 04:00:50;;;;;;;;;;;3.70;99.90;;;;;;2056876;28;20016;-78
2024/03/04 04:01:52;;;;;;;;;;;3.70;99.90;;;;;;2057106;28;19910;-77
2024/03/04 04:02:52;;;;;;;;;;;3.70;99.90;;;;;;2061193;28;20383;-78
2024/03/04 04:03:53;;;;;;;;;;;3.60;99.90;;;;;;2059682;28;19917;-77
2024/03/04 04:04:53;;;;;;;;;;;3.60;99.90;;;;;;2058414;28;19913;-78
2024/03/04 04:05:54;;;;;;;;;;;3.60;99.90;;;;;;2061404;28;19914;-76
2024/03/04 04:06:54;;;;;;;;;;;3.60;99.90;;;;;;2059441;28;20287;-78
2024/03/04 04:07:55;;;;;;;;;;;3.60;99.90;;;;;;2056284;28;19917;-77
2024/03/04 04:08:56;;;;;;;;;;;3.60;99.90;;;;;;2058313;28;19973;-77
2024/03/04 04:09:56;;;;;;;;;;;3.60;99.90;;;;;;2056782;28;19910;-77
2024/03/04 04:10:56;;;;;;;;;;;3.60;99.90;;;;;;2061176;28;19914;-76
2024/03/04 04:11:57;;;;;;;;;;;3.60;99.90;;;;;;2061087;28;19910;-76
2024/03/04 04:12:57;;;;;;;;;;;3.50;99.90;;;;;;2056996;28;19976;-79
2024/03/04 04:13:58;;;;;;;;;;;3.50;99.90;;;;;;2058900;28;19913;-76
2024/03/04 04:14:58;;;;;;;;;;;3.50;99.90;;;;;;2059305;28;20380;-77
2024/03/04 04:15:59;;;;;;;;;;;3.50;99.90;;;;;;2061095;28;19917;-77
2024/03/04 04:17:00;;;;;;;;;;;3.50;99.90;;;;;;2061344;28;20356;-76
2024/03/04 04:18:00;;;;;;;;;;;3.60;99.90;;;;;;2061194;28;19917;-77
2024/03/04 04:19:01;;;;;;;;;;;3.60;99.90;;;;;;2058419;28;20432;-77
2024/03/04 04:20:01;;;;;;;;;;;3.50;99.90;;;;;;2059497;28;20012;-77
2024/03/04 04:21:03;;;;;;;;;;;3.60;99.90;;;;;;2061171;28;20009;-78
2024/03/04 04:22:03;;;;;;;;;;;3.60;99.90;;;;;;2059898;28;19925;-77
2024/03/04 04:23:04;;;;;;;;;;;3.60;99.90;;;;;;2061074;28;19914;-77
2024/03/04 04:24:04;;;;;;;;;;;3.60;99.90;;;;;;2060921;28;20257;-76
2024/03/04 04:25:05;;;;;;;;;;;3.70;99.90;;;;;;2056678;28;19998;-77
2024/03/04 04:26:05;;;;;;;;;;;3.60;99.90;;;;;;2057104;28;20286;-77
2024/03/04 04:27:06;;;;;;;;;;;3.60;99.90;;;;;;2060074;28;19913;-77
2024/03/04 04:28:07;;;;;;;;;;;3.50;99.90;;;;;;2060202;28;20637;-77
2024/03/04 04:29:08;;;;;;;;;;;3.50;99.90;;;;;;2060089;28;20005;-79
2024/03/04 04:30:09;;;;;;;;;;;3.50;99.90;;;;;;2060360;28;20124;-78
2024/03/04 04:31:17;;;;;;;;;;;3.50;99.90;;;;;;2056856;28;19910;-79
2024/03/04 04:32:17;;;;;;;;;;;3.60;99.90;;;;;;2052997;28;19913;-79
2024/03/04 04:33:18;;;;;;;;;;;3.60;99.90;;;;;;2056977;28;20368;-76
2024/03/04 04:34:18;;;;;;;;;;;3.60;99.90;;;;;;2060937;28;19952;-79
2024/03/04 04:35:19;;;;;;;;;;;3.50;99.90;;;;;;2061039;28;20216;-77
2024/03/04 04:36:20;;;;;;;;;;;3.50;99.90;;;;;;2061265;28;20249;-79
2024/03/04 04:37:20;;;;;;;;;;;3.40;99.90;;;;;;2060196;28;19928;-77
2024/03/04 04:38:21;;;;;;;;;;;3.40;99.90;;;;;;2057290;28;20017;-79
2024/03/04 04:39:21;;;;;;;;;;;3.40;99.90;;;;;;2060715;28;20281;-80
2024/03/04 04:40:22;;;;;;;;;;;3.40;99.90;;;;;;2055776;28;19928;-77
2024/03/04 04:41:23;;;;;;;;;;;3.40;99.90;;;;;;2056596;28;19913;-78
2024/03/04 04:42:24;;;;;;;;;;;3.40;99.90;;;;;;2060837;28;19968;-77
2024/03/04 04:43:24;;;;;;;;;;;3.40;99.90;;;;;;2060750;28;19921;-78
2024/03/04 04:44:24;;;;;;;;;;;3.40;99.90;;;;;;2060921;28;20376;-78
2024/03/04 04:45:26;;;;;;;;;;;3.40;99.90;;;;;;2061076;28;19910;-77
2024/03/04 04:46:26;;;;;;;;;;;3.30;99.90;;;;;;2060199;28;20000;-79
2024/03/04 04:47:28;;;;;;;;;;;3.40;99.90;;;;;;2060378;28;19920;-79
2024/03/04 04:48:28;;;;;;;;;;;3.30;99.90;;;;;;2057209;28;20400;-79
2024/03/04 04:49:29;;;;;;;;;;;3.30;99.90;;;;;;2060878;28;19917;-79
2024/03/04 04:50:29;;;;;;;;;;;3.30;99.90;;;;;;2059960;28;19917;-78
2024/03/04 04:51:30;;;;;;;;;;;3.30;99.90;;;;;;2057118;28;19969;-79
2024/03/04 04:52:30;;;;;;;;;;;3.30;99.90;;;;;;2058017;28;19914;-79
2024/03/04 04:53:32;;;;;;;;;;;3.30;99.90;;;;;;2056387;28;19910;-79
2024/03/04 04:54:32;;;;;;;;;;;3.30;99.90;;;;;;2060495;28;19972;-80
2024/03/04 04:55:34;;;;;;;;;;;3.30;99.90;;;;;;2058496;28;20303;-79
2024/03/04 04:56:34;;;;;;;;;;;3.30;99.90;;;;;;2049548;28;19910;-80
2024/03/04 04:57:35;;;;;;;;;;;3.30;99.90;;;;;;2055235;28;20005;-79
2024/03/04 04:58:35;;;;;;;;;;;3.40;99.90;;;;;;2065248;28;20384;-78
2024/03/04 04:59:36;;;;;;;;;;;3.30;99.90;;;;;;2068177;28;20053;-78
2024/03/04 05:00:36;;;;;;;;;;;3.30;99.90;;;;;;2057983;28;19956;-77
2024/03/04 05:01:37;;;;;;;;;;;3.30;99.90;;;;;;2060699;28;20399;-77
2024/03/04 05:02:37;;;;;;;;;;;3.30;99.90;;;;;;2060687;28;19960;-78
2024/03/04 05:03:38;;;;;;;;;;;3.30;99.90;;;;;;2060668;28;20372;-78
2024/03/04 05:04:39;;;;;;;;;;;3.30;99.90;;;;;;2059072;28;19910;-79
2024/03/04 05:05:39;;;;;;;;;;;3.40;99.90;;;;;;2058200;28;19920;-78
2024/03/04 05:06:40;;;;;;;;;;;3.40;99.90;;;;;;2059145;28;19910;-79
2024/03/04 05:07:40;;;;;;;;;;;3.50;99.90;;;;;;2058280;28;20375;-78
2024/03/04 05:08:41;;;;;;;;;;;3.40;99.90;;;;;;2060086;28;19910;-80
2024/03/04 05:09:41;;;;;;;;;;;3.40;99.90;;;;;;2060713;28;19924;-77
2024/03/04 05:10:42;;;;;;;;;;;3.40;99.90;;;;;;2058675;28;20321;-78
2024/03/04 05:11:42;;;;;;;;;;;3.40;99.90;;;;;;2058839;28;19914;-78
2024/03/04 05:12:43;;;;;;;;;;;3.40;99.90;;;;;;2056906;28;19910;-77
2024/03/04 05:13:43;;;;;;;;;;;3.40;99.90;;;;;;2060631;28;20384;-77
2024/03/04 05:14:47;;;;;;;;;;;3.40;99.90;;;;;;2060732;28;19981;-77
2024/03/04 05:15:47;;;;;;;;;;;3.30;99.90;;;;;;2055886;28;19914;-78
2024/03/04 05:16:48;;;;;;;;;;;3.30;99.90;;;;;;2055984;28;20308;-78
2024/03/04 05:17:48;;;;;;;;;;;3.30;99.90;;;;;;2057760;28;19996;-78
2024/03/04 05:18:49;;;;;;;;;;;3.30;99.90;;;;;;2058948;28;19913;-78
2024/03/04 05:19:50;;;;;;;;;;;3.30;99.90;;;;;;2060764;28;19924;-78
2024/03/04 05:20:51;;;;;;;;;;;3.30;99.90;;;;;;2060255;28;20407;-78
2024/03/04 05:21:51;;;;;;;;;;;3.30;99.90;;;;;;2060738;28;19976;-78
2024/03/04 05:22:52;;;;;;;;;;;3.30;99.90;;;;;;2054211;28;19921;-75
2024/03/04 05:23:52;;;;;;;;;;;3.30;99.90;;;;;;2059842;28;19913;-75
2024/03/04 05:24:53;;;;;;;;;;;3.30;99.90;;;;;;2055605;28;20104;-77
2024/03/04 05:25:53;;;;;;;;;;;3.30;99.90;;;;;;2059912;28;20006;-76
2024/03/04 05:26:54;;;;;;;;;;;3.30;99.90;;;;;;2059652;28;19913;-77
2024/03/04 05:27:54;;;;;;;;;;;3.30;99.90;;;;;;2059640;28;19920;-78
2024/03/04 05:28:55;;;;;;;;;;;3.30;99.90;;;;;;2057633;28;19978;-77
2024/03/04 05:29:56;;;;;;;;;;;3.30;99.90;;;;;;2059585;28;19909;-77
2024/03/04 05:30:57;;;;;;;;;;;3.30;99.90;;;;;;2045860;28;19914;-77
2024/03/04 05:31:57;;;;;;;;;;;3.30;99.90;;;;;;2039999;28;20440;-77
2024/03/04 05:32:58;;;;;;;;;;;3.30;99.90;;;;;;2051181;28;20017;-77
2024/03/04 05:33:59;;;;;;;;;;;3.20;99.90;;;;;;2059392;28;20401;-77
2024/03/04 05:34:59;;;;;;;;;;;3.20;99.90;;;;;;2063877;28;19960;-78
2024/03/04 05:36:04;;;;;;;;;;;3.30;99.90;;;;;;2063855;28;19909;-78
2024/03/04 05:37:05;;;;;;;;;;;3.20;99.90;;;;;;2055867;28;19910;-78
2024/03/04 05:38:05;;;;;;;;;;;3.20;99.90;;;;;;2059117;28;19909;-79
2024/03/04 05:39:09;;;;;;;;;;;3.30;99.90;;;;;;2057345;28;19960;-80
2024/03/04 05:40:10;;;;;;;;;;;3.20;99.90;;;;;;2054767;28;19918;-74
2024/03/04 05:41:11;;;;;;;;;;;3.30;99.90;;;;;;2056387;28;19914;-74
2024/03/04 05:42:12;;;;;;;;;;;3.20;99.90;;;;;;2057244;28;19920;-74
2024/03/04 05:43:12;;;;;;;;;;;3.30;99.90;;;;;;2058478;28;20358;-73
2024/03/04 05:44:14;;;;;;;;;;;3.30;99.90;;;;;;2060255;28;19920;-74
2024/03/04 05:45:14;;;;;;;;;;;3.30;99.90;;;;;;2060338;28;19914;-73
2024/03/04 05:46:14;;;;;;;;;;;3.20;99.90;;;;;;2060411;28;19964;-72
2024/03/04 05:47:15;;;;;;;;;;;3.20;99.90;;;;;;2058364;28;19941;-71
2024/03/04 05:48:16;;;;;;;;;;;3.20;99.90;;;;;;2057322;28;20289;-72
2024/03/04 05:49:16;;;;;;;;;;;3.30;99.90;;;;;;2059576;28;19956;-72
2024/03/04 05:50:17;;;;;;;;;;;3.20;99.90;;;;;;2060288;28;20363;-72
2024/03/04 05:51:18;;;;;;;;;;;3.20;99.90;;;;;;2056152;28;19914;-73
2024/03/04 05:52:19;;;;;;;;;;;3.20;99.90;;;;;;2060315;28;19910;-72
2024/03/04 05:53:20;;;;;;;;;;;3.20;99.90;;;;;;2060201;28;20036;-72
2024/03/04 05:54:20;;;;;;;;;;;3.20;99.90;;;;;;2060356;28;19914;-72
2024/03/04 05:55:21;;;;;;;;;;;3.30;99.90;;;;;;2059503;28;19941;-72
2024/03/04 05:56:22;;;;;;;;;;;3.30;99.90;;;;;;2058891;28;19909;-72
2024/03/04 05:57:22;;;;;;;;;;;3.30;99.90;;;;;;2060296;28;19913;-73
2024/03/04 05:58:24;;;;;;;;;;;3.30;99.90;;;;;;2059988;28;19909;-73
2024/03/04 05:59:24;;;;;;;;;;;3.30;99.90;;;;;;2055788;28;19932;-73
2024/03/04 06:00:25;;;;;;;;;;;3.30;99.90;;;;;;2057707;28;19933;-73